Svea, Minnesota
Current Conditions -  °F | °C
As of 4:14 AM on Friday 19 Dec 2014 (Local Time) from KOVL Reporting Station
Overcast Overcast  
Wind Chill: 18°   Ceiling: 1000
Heat Index: 27°   Visibility: 7mi
Dew Point: 23°   Wind: 8mph
Humidity: 86%   Direction: 140°SE
Pressure: 30.18"   Gusts: NA
Location:  44.9371°N, 95.0539°W
Report Text: KOVL 191014Z AUTO 14007KT 7SM BKN010 OVC015 M03/M05 A3018 RMK AO2
Loading
Personal Weather Stations






























Interactive Weather Map New forecast layout! Learn more

10-Day Weather Forecast

Advertisements
Track Severe Weather on mobile